Time;durP1;ratioP1;P1;durP2;ratioP2;P2;SDS_P1;SDS_P2;PMS_P1;PMS_P2;Temp;Humidity;BMP_temperature;BMP_pressure;BME280_temperature;BME280_humidity;BME280_pressure;Samples;Min_cycle;Max_cycle;Signal;HPM_P1;HPM_P2
2022/04/29 00:02:10;;;;;;;3.45;2.95;;;13.00;91.80;;;;;;5053701;28;20037;-66
2022/04/29 00:04:36;;;;;;;4.97;2.97;;;13.00;92.30;;;;;;5054165;28;20056;-66
2022/04/29 00:07:03;;;;;;;5.25;3.40;;;12.90;92.60;;;;;;5054540;28;20025;-66
2022/04/29 00:09:29;;;;;;;5.00;3.05;;;12.90;93.30;;;;;;5053888;28;20036;-66
2022/04/29 00:11:55;;;;;;;5.30;3.27;;;12.90;93.80;;;;;;5053610;28;20100;-66
2022/04/29 00:14:23;;;;;;;4.80;3.50;;;12.80;94.30;;;;;;5053583;28;20474;-66
2022/04/29 00:16:49;;;;;;;4.15;3.20;;;12.80;95.00;;;;;;5053598;28;20059;-66
2022/04/29 00:19:16;;;;;;;5.43;3.45;;;12.70;95.40;;;;;;5053561;28;20155;-66
2022/04/29 00:21:42;;;;;;;5.22;4.18;;;12.70;95.70;;;;;;5052090;28;20044;-66
2022/04/29 00:24:09;;;;;;;4.95;3.25;;;12.70;96.10;;;;;;5052872;28;20029;-67
2022/04/29 00:26:37;;;;;;;4.38;3.10;;;12.70;96.90;;;;;;5053532;28;20029;-66
2022/04/29 00:29:06;;;;;;;4.40;3.28;;;12.70;97.50;;;;;;5052328;28;20118;-66
2022/04/29 00:31:32;;;;;;;5.15;4.03;;;12.60;97.90;;;;;;5053668;28;20032;-66
2022/04/29 00:33:58;;;;;;;4.43;3.30;;;12.60;99.00;;;;;;5053300;28;20496;-66
2022/04/29 00:36:24;;;;;;;6.70;3.55;;;12.50;98.70;;;;;;5053310;28;20104;-66
2022/04/29 00:38:50;;;;;;;5.38;4.10;;;12.50;99.70;;;;;;5053584;28;20041;-66
2022/04/29 00:41:17;;;;;;;6.03;4.17;;;12.40;99.90;;;;;;5053237;28;20087;-66
2022/04/29 00:43:42;;;;;;;6.38;3.85;;;12.40;99.90;;;;;;5053186;28;20456;-66
2022/04/29 00:46:08;;;;;;;4.60;3.50;;;12.30;99.90;;;;;;5053130;28;20053;-66
2022/04/29 00:48:34;;;;;;;5.18;3.65;;;12.30;99.90;;;;;;5051956;28;20021;-66
2022/04/29 00:51:00;;;;;;;5.38;4.07;;;12.20;99.90;;;;;;5053192;28;20434;-66
2022/04/29 00:53:28;;;;;;;7.32;4.20;;;12.20;99.90;;;;;;5053190;28;20029;-66
2022/04/29 00:55:55;;;;;;;4.85;3.80;;;12.20;99.90;;;;;;5053433;28;20032;-67
2022/04/29 00:58:32;;;;;;;5.10;3.50;;;12.20;99.90;;;;;;5053602;28;20090;-66
2022/04/29 01:01:01;;;;;;;8.82;4.30;;;12.20;99.90;;;;;;5053003;28;20121;-66
2022/04/29 01:03:28;;;;;;;4.97;4.15;;;12.10;99.90;;;;;;5052870;28;20470;-65
2022/04/29 01:05:55;;;;;;;5.80;3.70;;;12.10;99.90;;;;;;5053168;28;20020;-65
2022/04/29 01:08:20;;;;;;;7.18;4.60;;;12.10;99.90;;;;;;5052518;28;20474;-66
2022/04/29 01:10:47;;;;;;;5.53;3.40;;;12.10;99.90;;;;;;5053738;28;20025;-66
2022/04/29 01:13:13;;;;;;;5.90;3.92;;;12.10;99.90;;;;;;5052970;28;20267;-67
2022/04/29 01:15:39;;;;;;;9.00;3.70;;;12.00;99.90;;;;;;5052842;28;20031;-66
2022/04/29 01:18:09;;;;;;;5.63;3.95;;;12.00;99.90;;;;;;5052725;28;20029;-66
2022/04/29 01:20:35;;;;;;;7.47;3.75;;;12.00;99.90;;;;;;5053368;28;20355;-65
2022/04/29 01:23:09;;;;;;;5.07;3.50;;;12.00;99.90;;;;;;5052486;28;20113;-65
2022/04/29 01:25:35;;;;;;;6.28;3.53;;;12.00;99.90;;;;;;5052911;28;20051;-65
2022/04/29 01:28:01;;;;;;;5.55;3.33;;;12.00;99.90;;;;;;5053097;28;20466;-66
2022/04/29 01:30:27;;;;;;;6.27;3.80;;;12.00;99.90;;;;;;5052873;28;20025;-66
2022/04/29 01:32:55;;;;;;;5.00;3.47;;;11.90;99.90;;;;;;5052759;28;20036;-66
2022/04/29 01:35:21;;;;;;;6.97;4.20;;;11.90;99.90;;;;;;5054510;28;20040;-66
2022/04/29 01:37:47;;;;;;;4.22;3.47;;;11.90;99.90;;;;;;5056573;28;20040;-66
2022/04/29 01:40:13;;;;;;;4.50;3.57;;;11.90;99.90;;;;;;5055362;28;20055;-66
2022/04/29 01:42:40;;;;;;;;;;;11.80;99.90;;;;;;5056731;28;20029;-65
2022/04/29 01:45:08;;;;;;;6.65;4.10;;;11.70;99.90;;;;;;5056452;28;19905;-65
2022/04/29 01:47:34;;;;;;;7.68;4.05;;;11.60;99.90;;;;;;5056380;28;20104;-65
2022/04/29 01:49:59;;;;;;;5.85;4.28;;;11.60;99.90;;;;;;5056551;28;20493;-66
2022/04/29 01:52:25;;;;;;;5.53;4.40;;;11.50;99.90;;;;;;5056096;28;20029;-67
2022/04/29 01:54:50;;;;;;;6.30;4.17;;;11.40;99.90;;;;;;5056639;28;20032;-67
2022/04/29 01:57:16;;;;;;;6.77;3.80;;;11.30;99.90;;;;;;5056415;28;20033;-67
2022/04/29 01:59:41;;;;;;;5.10;3.90;;;11.30;99.90;;;;;;5056713;28;20029;-67
2022/04/29 02:02:07;;;;;;;4.87;3.97;;;11.20;99.90;;;;;;5056094;28;20290;-67
2022/04/29 02:04:36;;;;;;;8.90;4.32;;;11.10;99.90;;;;;;5056056;28;20016;-67
2022/04/29 02:07:03;;;;;;;7.55;4.68;;;11.10;99.90;;;;;;5054749;28;20088;-67
2022/04/29 02:09:29;;;;;;;6.65;3.85;;;11.10;99.90;;;;;;5056040;28;20025;-67
2022/04/29 02:12:07;;;;;;;7.30;4.07;;;10.90;99.90;;;;;;5055874;28;20105;-66
2022/04/29 02:14:33;;;;;;;6.50;4.13;;;10.80;99.90;;;;;;5056256;28;20052;-66
2022/04/29 02:17:01;;;;;;;4.88;3.85;;;10.80;99.90;;;;;;5055967;28;20051;-66
2022/04/29 02:19:28;;;;;;;7.05;4.47;;;10.70;99.90;;;;;;5055952;28;20390;-67
2022/04/29 02:21:54;;;;;;;5.50;4.20;;;10.60;99.90;;;;;;5055670;28;20079;-67
2022/04/29 02:24:20;;;;;;;8.35;4.35;;;10.50;99.90;;;;;;5055947;28;20063;-67
2022/04/29 02:26:46;;;;;;;6.45;3.95;;;10.50;99.90;;;;;;5055837;28;20029;-67
2022/04/29 02:29:12;;;;;;;6.35;4.68;;;10.50;99.90;;;;;;5055950;28;20021;-67
2022/04/29 02:31:38;;;;;;;5.80;5.03;;;10.50;99.90;;;;;;5055840;28;20079;-67
2022/04/29 02:34:03;;;;;;;7.37;4.73;;;10.50;99.90;;;;;;5055489;28;20266;-67
2022/04/29 02:36:29;;;;;;;7.00;4.70;;;10.50;99.90;;;;;;5055697;28;20040;-67
2022/04/29 02:38:54;;;;;;;8.23;4.73;;;10.40;99.90;;;;;;5055547;28;20025;-67
2022/04/29 02:41:20;;;;;;;7.50;4.73;;;10.40;99.90;;;;;;5055418;28;20065;-67
2022/04/29 02:43:46;;;;;;;6.23;5.20;;;10.30;99.90;;;;;;5055213;28;20025;-67
2022/04/29 02:46:12;;;;;;;6.30;4.75;;;10.30;99.90;;;;;;5054689;28;20071;-67
2022/04/29 02:48:37;;;;;;;5.88;4.30;;;10.30;99.90;;;;;;5055246;28;20028;-67
2022/04/29 02:51:04;;;;;;;7.23;5.30;;;10.20;99.90;;;;;;5055281;28;20029;-67
2022/04/29 02:53:30;;;;;;;7.35;4.90;;;10.20;99.90;;;;;;5055148;28;20485;-67
2022/04/29 02:55:56;;;;;;;7.55;5.00;;;10.20;99.90;;;;;;5053980;28;20035;-67
2022/04/29 02:58:22;;;;;;;7.47;5.57;;;10.20;99.90;;;;;;5054346;28;20049;-66
2022/04/29 03:00:47;;;;;;;7.70;5.13;;;10.10;99.90;;;;;;5055569;28;20029;-66
2022/04/29 03:03:13;;;;;;;7.50;5.10;;;10.10;99.90;;;;;;5055959;28;20068;-66
2022/04/29 03:05:39;;;;;;;7.70;5.17;;;10.10;99.90;;;;;;5055536;28;20027;-66
2022/04/29 03:08:05;;;;;;;9.63;5.80;;;10.00;99.90;;;;;;5055708;28;20279;-66
2022/04/29 03:10:31;;;;;;;8.23;5.38;;;10.00;99.90;;;;;;5055393;28;20041;-66
2022/04/29 03:12:56;;;;;;;6.73;5.50;;;9.90;99.90;;;;;;5054768;28;20402;-65
2022/04/29 03:15:25;;;;;;;10.87;5.83;;;9.90;99.90;;;;;;5057788;28;20036;-66
2022/04/29 03:20:37;;;;;;;6.93;5.38;;;9.70;99.90;;;;;;5058917;28;20044;-66
2022/04/29 03:23:03;;;;;;;9.45;5.93;;;9.70;99.90;;;;;;5057890;28;20067;-66
2022/04/29 03:25:29;;;;;;;7.95;5.82;;;9.70;99.90;;;;;;5056332;28;20413;-66
2022/04/29 03:27:55;;;;;;;6.63;5.50;;;9.60;99.90;;;;;;5055142;28;20051;-66
2022/04/29 03:30:20;;;;;;;8.37;5.77;;;9.60;99.90;;;;;;5054596;28;20363;-66
2022/04/29 03:32:54;;;;;;;7.55;5.72;;;9.60;99.90;;;;;;5054757;28;20263;-66
2022/04/29 03:35:20;;;;;;;8.70;5.82;;;9.60;99.90;;;;;;5054537;28;20036;-66
2022/04/29 03:37:46;;;;;;;7.93;5.70;;;9.60;99.90;;;;;;5053226;28;20149;-66
2022/04/29 03:40:14;;;;;;;7.87;6.07;;;9.50;99.90;;;;;;5054559;28;20108;-66
2022/04/29 03:42:40;;;;;;;10.80;5.68;;;9.50;99.90;;;;;;5054070;28;20025;-66
2022/04/29 03:45:06;;;;;;;6.43;5.57;;;9.40;99.90;;;;;;5054240;28;20025;-68
2022/04/29 03:47:31;;;;;;;9.15;6.10;;;9.30;99.90;;;;;;5054606;28;20067;-65
2022/04/29 03:49:57;;;;;;;6.63;5.80;;;9.20;99.90;;;;;;5054180;28;20454;-66
2022/04/29 03:52:23;;;;;;;8.23;6.27;;;9.10;99.90;;;;;;5054171;28;20086;-67
2022/04/29 03:54:48;;;;;;;8.53;5.90;;;9.10;99.90;;;;;;5054180;28;20036;-67
2022/04/29 03:57:14;;;;;;;7.70;6.67;;;9.00;99.90;;;;;;5052685;28;20123;-65
2022/04/29 03:59:39;;;;;;;10.07;7.17;;;8.90;99.90;;;;;;5053990;28;20105;-65
2022/04/29 04:02:05;;;;;;;8.97;7.10;;;8.80;99.90;;;;;;5053870;28;20052;-67
2022/04/29 04:04:31;;;;;;;11.55;6.85;;;8.80;99.90;;;;;;5054212;28;20036;-65
2022/04/29 04:07:01;;;;;;;10.67;6.93;;;8.70;99.90;;;;;;5052399;28;20025;-66
2022/04/29 04:09:27;;;;;;;8.10;7.07;;;8.70;99.90;;;;;;5053865;28;20048;-64
2022/04/29 04:11:53;;;;;;;10.68;7.10;;;8.70;99.90;;;;;;5052472;28;20029;-64
2022/04/29 04:14:19;;;;;;;9.50;7.27;;;8.60;99.90;;;;;;5053909;28;20095;-64
2022/04/29 04:16:45;;;;;;;9.97;6.60;;;8.60;99.90;;;;;;5053585;28;20033;-64
2022/04/29 04:19:11;;;;;;;7.78;6.80;;;8.60;99.90;;;;;;5053532;28;20343;-64
2022/04/29 04:21:36;;;;;;;12.57;6.53;;;8.50;99.90;;;;;;5053870;28;20077;-65
2022/04/29 04:24:02;;;;;;;11.33;7.53;;;8.50;99.90;;;;;;5052198;28;20036;-64
2022/04/29 04:26:28;;;;;;;11.15;7.38;;;8.40;99.90;;;;;;5053423;28;20079;-64
2022/04/29 04:28:54;;;;;;;10.90;7.67;;;8.40;99.90;;;;;;5053440;28;20450;-65
2022/04/29 04:31:21;;;;;;;9.87;6.97;;;8.40;99.90;;;;;;5053240;28;20032;-64
2022/04/29 04:33:47;;;;;;;10.68;7.45;;;8.30;99.90;;;;;;5054006;28;20044;-65
2022/04/29 04:36:13;;;;;;;10.60;7.13;;;8.30;99.90;;;;;;5053159;28;20108;-65
2022/04/29 04:38:38;;;;;;;8.00;7.10;;;8.30;99.90;;;;;;5053138;28;20072;-65
2022/04/29 04:41:04;;;;;;;8.43;6.73;;;8.30;99.90;;;;;;5053173;28;20025;-65
2022/04/29 04:43:30;;;;;;;8.85;7.15;;;8.30;99.90;;;;;;5053201;28;20120;-65
2022/04/29 04:45:56;;;;;;;12.20;7.53;;;8.20;99.90;;;;;;5051710;28;20021;-63
2022/04/29 04:48:22;;;;;;;9.55;7.50;;;8.30;99.90;;;;;;5053001;28;20068;-67
2022/04/29 04:50:47;;;;;;;10.32;7.70;;;8.30;99.90;;;;;;5052998;28;20486;-69
2022/04/29 04:53:13;;;;;;;10.40;6.97;;;8.30;99.90;;;;;;5052424;28;20056;-65
2022/04/29 04:55:40;;;;;;;8.73;6.65;;;8.30;99.90;;;;;;5052806;28;20231;-65
2022/04/29 04:58:06;;;;;;;10.32;6.90;;;8.40;99.90;;;;;;5052993;28;20078;-66
2022/04/29 05:00:32;;;;;;;11.30;7.75;;;8.50;99.90;;;;;;5052820;28;20039;-65
2022/04/29 05:02:57;;;;;;;8.43;7.07;;;8.60;99.90;;;;;;5052757;28;20474;-65
2022/04/29 05:05:23;;;;;;;11.40;7.50;;;8.50;99.90;;;;;;5052694;28;20078;-65
2022/04/29 05:07:49;;;;;;;8.80;7.10;;;8.60;99.90;;;;;;5052912;28;20032;-64
2022/04/29 05:10:14;;;;;;;10.20;7.53;;;8.60;99.90;;;;;;5052382;28;20447;-64
2022/04/29 05:12:44;;;;;;;11.10;7.93;;;8.60;99.90;;;;;;5052696;28;20025;-65
2022/04/29 05:15:11;;;;;;;11.45;7.80;;;8.60;99.90;;;;;;5052605;28;20089;-65
2022/04/29 05:17:40;;;;;;;10.93;7.13;;;8.60;99.90;;;;;;5052949;28;20103;-65
2022/04/29 05:20:11;;;;;;;10.43;7.53;;;8.70;99.90;;;;;;5052808;28;20033;-65
2022/04/29 05:22:37;;;;;;;10.32;7.28;;;8.70;99.90;;;;;;5052653;28;20024;-66
2022/04/29 05:25:04;;;;;;;9.95;7.57;;;8.80;99.90;;;;;;5053547;28;20481;-66
2022/04/29 05:27:30;;;;;;;8.45;6.90;;;8.90;99.90;;;;;;5053442;28;20363;-66
2022/04/29 05:29:57;;;;;;;10.13;7.85;;;8.90;99.90;;;;;;5053176;28;20175;-67
2022/04/29 05:32:26;;;;;;;9.00;7.15;;;9.00;99.90;;;;;;5052209;28;20422;-65
2022/04/29 05:34:52;;;;;;;10.07;7.47;;;9.00;99.90;;;;;;5051099;28;20067;-65
2022/04/29 05:37:18;;;;;;;8.77;6.85;;;9.10;99.90;;;;;;5052437;28;20033;-66
2022/04/29 05:42:28;;;;;;;10.07;7.47;;;9.30;99.90;;;;;;5053362;28;20091;-66
2022/04/29 05:44:54;;;;;;;9.73;6.90;;;9.40;99.90;;;;;;5053429;28;20458;-66
2022/04/29 05:47:20;;;;;;;8.55;6.70;;;9.50;99.90;;;;;;5053759;28;20047;-66
2022/04/29 05:49:46;;;;;;;9.60;7.40;;;9.50;99.90;;;;;;5052322;28;20430;-66
2022/04/29 05:52:12;;;;;;;10.43;6.83;;;9.60;99.90;;;;;;5052448;28;20071;-66
2022/04/29 05:54:38;;;;;;;13.20;7.30;;;9.70;99.90;;;;;;5052950;28;20105;-66
2022/04/29 05:57:04;;;;;;;8.50;7.03;;;9.80;99.90;;;;;;5054030;28;20060;-65
2022/04/29 05:59:30;;;;;;;;;;;9.90;99.90;;;;;;5053814;28;20025;-66
2022/04/29 06:01:56;;;;;;;14.65;6.93;;;9.90;99.90;;;;;;5053317;28;19919;-66
2022/04/29 06:04:22;;;;;;;10.88;7.13;;;10.00;99.90;;;;;;5052565;28;20120;-64
2022/04/29 06:06:49;;;;;;;9.35;6.90;;;10.10;99.90;;;;;;5052697;28;20138;-66
2022/04/29 06:09:14;;;;;;;10.18;6.57;;;10.10;99.90;;;;;;5052259;28;20017;-65
2022/04/29 06:11:40;;;;;;;10.60;6.80;;;10.10;99.90;;;;;;5052569;28;20082;-64
2022/04/29 06:14:06;;;;;;;10.23;7.38;;;10.10;99.90;;;;;;5051281;28;20091;-65
2022/04/29 06:16:31;;;;;;;10.53;6.63;;;10.10;99.90;;;;;;5052241;28;20170;-65
2022/04/29 06:18:57;;;;;;;9.53;7.33;;;10.10;99.90;;;;;;5052306;28;20021;-64
2022/04/29 06:21:23;;;;;;;10.47;6.50;;;10.20;99.90;;;;;;5052485;28;20025;-64
2022/04/29 06:23:48;;;;;;;11.47;7.33;;;10.20;99.90;;;;;;5055675;28;20040;-65
2022/04/29 06:26:15;;;;;;;11.30;6.87;;;10.30;99.90;;;;;;5055716;28;20342;-65
2022/04/29 06:28:41;;;;;;;8.07;6.53;;;10.20;99.90;;;;;;5055495;28;20287;-65
2022/04/29 06:31:06;;;;;;;10.93;7.20;;;10.30;99.90;;;;;;5055631;28;20025;-66
2022/04/29 06:33:33;;;;;;;10.10;7.28;;;10.30;99.90;;;;;;5055398;28;20032;-66
2022/04/29 06:35:59;;;;;;;11.50;6.57;;;10.40;99.90;;;;;;5054192;28;20059;-66
2022/04/29 06:38:25;;;;;;;10.13;6.43;;;10.50;99.90;;;;;;5055473;28;20029;-64
2022/04/29 06:40:52;;;;;;;8.35;6.18;;;10.60;99.90;;;;;;5055334;28;20048;-64
2022/04/29 06:43:19;;;;;;;10.40;6.55;;;10.80;99.90;;;;;;5055115;28;20021;-65
2022/04/29 06:45:44;;;;;;;8.07;6.28;;;10.90;99.90;;;;;;5055546;28;20022;-65
2022/04/29 06:48:10;;;;;;;9.25;6.35;;;11.00;99.90;;;;;;5055567;28;20048;-65
2022/04/29 06:50:36;;;;;;;10.77;7.07;;;11.10;99.90;;;;;;5056266;28;20021;-64
2022/04/29 06:53:01;;;;;;;10.10;6.83;;;11.10;99.90;;;;;;5055315;28;20528;-64
2022/04/29 06:55:27;;;;;;;10.15;6.35;;;11.20;99.90;;;;;;5055296;28;20058;-64
2022/04/29 06:57:53;;;;;;;10.07;6.28;;;11.30;99.90;;;;;;5055122;28;20033;-64
2022/04/29 07:00:19;;;;;;;8.33;7.07;;;11.30;99.90;;;;;;5055296;28;20076;-64
2022/04/29 07:02:45;;;;;;;8.60;6.97;;;11.40;99.90;;;;;;5054887;28;20029;-64
2022/04/29 07:05:11;;;;;;;11.90;6.70;;;11.50;99.90;;;;;;5055008;28;20033;-63
2022/04/29 07:07:36;;;;;;;10.40;6.32;;;11.50;99.90;;;;;;5054840;28;20442;-65
2022/04/29 07:10:04;;;;;;;10.70;6.50;;;11.50;99.90;;;;;;5054776;28;20035;-64
2022/04/29 07:12:33;;;;;;;37.05;9.43;;;11.50;99.90;;;;;;5054863;28;20378;-63
2022/04/29 07:14:59;;;;;;;9.00;6.50;;;11.50;99.90;;;;;;5054844;28;20017;-64
2022/04/29 07:17:25;;;;;;;9.07;6.50;;;11.70;99.90;;;;;;5055109;28;20029;-63
2022/04/29 07:19:52;;;;;;;9.65;6.45;;;11.80;99.90;;;;;;5054739;28;20059;-63
2022/04/29 07:22:17;;;;;;;;;;;11.90;99.90;;;;;;5054774;28;20028;-63
2022/04/29 07:24:43;;;;;;;8.27;6.72;;;12.00;99.90;;;;;;5054567;28;19904;-63
2022/04/29 07:27:08;;;;;;;8.50;5.95;;;12.10;99.90;;;;;;5054427;28;20474;-64
2022/04/29 07:29:34;;;;;;;10.00;6.77;;;12.20;99.90;;;;;;5054421;28;20056;-64
2022/04/29 07:32:00;;;;;;;8.18;5.85;;;12.30;99.90;;;;;;5054477;28;20032;-64
2022/04/29 07:41:44;;;;;;;8.17;6.30;;;12.40;99.90;;;;;;5054422;28;20032;-63
2022/04/29 07:42:39;;;;;;;8.02;5.70;;;12.90;99.90;;;;;;5054282;28;20099;-66
2022/04/29 07:45:05;;;;;;;9.97;6.40;;;13.10;99.90;;;;;;5054220;28;20446;-63
2022/04/29 07:47:30;;;;;;;9.52;5.70;;;13.30;99.90;;;;;;5053251;28;20208;-64
2022/04/29 07:49:56;;;;;;;8.07;5.37;;;13.50;99.90;;;;;;5054484;28;20060;-65
2022/04/29 07:52:22;;;;;;;9.47;6.10;;;13.80;99.90;;;;;;5054532;28;20276;-64
2022/04/29 07:54:48;;;;;;;10.00;5.85;;;14.10;99.90;;;;;;5054990;28;20287;-64
2022/04/29 07:57:13;;;;;;;11.00;6.63;;;14.30;99.90;;;;;;5054659;28;20021;-65
2022/04/29 07:59:39;;;;;;;8.40;6.27;;;14.60;99.90;;;;;;5054485;28;20032;-64
2022/04/29 08:02:06;;;;;;;10.47;6.63;;;14.90;99.90;;;;;;5053594;28;20177;-65
2022/04/29 08:04:32;;;;;;;9.88;6.03;;;15.20;99.90;;;;;;5053772;28;20636;-63
2022/04/29 08:06:58;;;;;;;9.32;5.60;;;15.40;99.40;;;;;;5053814;28;20021;-65
2022/04/29 08:09:23;;;;;;;8.80;5.73;;;15.60;99.20;;;;;;5053753;28;20108;-65
2022/04/29 08:11:49;;;;;;;8.00;5.97;;;15.80;98.50;;;;;;5053508;28;20048;-65
2022/04/29 08:14:15;;;;;;;9.23;5.77;;;16.00;98.30;;;;;;5053866;28;20072;-65
2022/04/29 08:16:41;;;;;;;7.75;5.53;;;16.30;98.00;;;;;;5053815;28;20295;-64
2022/04/29 08:19:07;;;;;;;11.45;6.15;;;16.80;96.80;;;;;;5053543;28;20032;-64
2022/04/29 08:21:34;;;;;;;11.05;5.88;;;17.10;95.60;;;;;;5053750;28;20025;-64
2022/04/29 08:23:59;;;;;;;;;;;17.00;95.90;;;;;;5053828;28;20021;-64
2022/04/29 08:26:25;;;;;;;9.25;5.63;;;17.10;94.70;;;;;;5053772;28;19911;-65
2022/04/29 08:28:51;;;;;;;9.57;5.55;;;17.00;95.10;;;;;;5053482;28;20100;-65
2022/04/29 08:31:18;;;;;;;7.90;5.40;;;17.00;95.30;;;;;;5052721;28;20021;-65
2022/04/29 08:33:43;;;;;;;9.77;6.20;;;17.30;95.10;;;;;;5054017;28;20021;-65
2022/04/29 08:36:09;;;;;;;7.47;5.40;;;17.10;94.20;;;;;;5054001;28;20032;-65
2022/04/29 08:38:36;;;;;;;9.77;5.40;;;17.00;95.30;;;;;;5053521;28;20029;-65
2022/04/29 08:41:02;;;;;;;9.80;5.82;;;17.20;95.30;;;;;;5053216;28;20036;-65
2022/04/29 08:43:28;;;;;;;7.97;5.65;;;17.10;94.40;;;;;;5051442;28;20052;-65
2022/04/29 08:45:55;;;;;;;7.70;5.55;;;16.90;94.20;;;;;;5052253;28;20098;-64
2022/04/29 08:48:20;;;;;;;8.68;5.82;;;16.60;94.40;;;;;;5053553;28;20025;-65
2022/04/29 08:50:47;;;;;;;6.65;5.35;;;16.50;95.20;;;;;;5052895;28;20028;-66
2022/04/29 08:53:13;;;;;;;9.60;5.38;;;16.70;95.40;;;;;;5052913;28;20104;-64
2022/04/29 08:58:43;;;;;;;7.80;5.20;;;17.00;94.70;;;;;;5053003;28;20255;-64
2022/04/29 09:01:13;;;;;;;11.40;5.35;;;17.30;93.90;;;;;;5052873;28;20033;-64
2022/04/29 09:03:42;;;;;;;14.93;5.45;;;18.00;93.80;;;;;;5051553;28;20387;-64
2022/04/29 09:06:08;;;;;;;11.15;5.93;;;18.80;93.00;;;;;;5053838;28;20041;-64
2022/04/29 09:08:45;;;;;;;10.48;6.70;;;19.30;91.70;;;;;;5054357;28;20100;-65
2022/04/29 09:11:19;;;;;;;9.52;5.50;;;20.10;90.60;;;;;;5054178;28;20143;-65
2022/04/29 09:13:45;;;;;;;7.07;4.53;;;20.60;90.30;;;;;;5053433;28;20474;-65
2022/04/29 09:16:12;;;;;;;6.88;5.10;;;21.10;88.00;;;;;;5053446;28;20119;-65
2022/04/29 09:18:39;;;;;;;5.57;4.65;;;21.60;85.60;;;;;;5053274;28;20064;-65
2022/04/29 09:21:05;;;;;;;7.57;4.88;;;21.70;84.00;;;;;;5052781;28;20033;-65
2022/04/29 09:23:31;;;;;;;7.95;4.68;;;22.20;82.10;;;;;;5052843;28;20033;-65
2022/04/29 09:26:01;;;;;;;5.55;4.63;;;22.40;80.20;;;;;;5052788;28;20079;-65
2022/04/29 09:28:27;;;;;;;5.00;4.50;;;22.00;80.30;;;;;;5052550;28;20086;-65
2022/04/29 09:30:56;;;;;;;;;;;21.90;80.80;;;;;;5052596;28;20025;-65
2022/04/29 09:33:24;;;;;;;7.93;5.05;;;21.20;80.00;;;;;;5052419;28;19911;-64
2022/04/29 09:35:50;;;;;;;7.28;4.93;;;20.40;81.00;;;;;;5052505;28;20021;-64
2022/04/29 09:41:01;;;;;;;6.55;4.78;;;19.70;82.60;;;;;;5052654;28;20396;-65
2022/04/29 09:43:41;;;;;;;7.65;4.93;;;19.10;85.60;;;;;;5052387;28;20028;-65
2022/04/29 09:46:25;;;;;;;13.52;5.30;;;18.90;84.80;;;;;;5052580;28;20462;-65
2022/04/29 09:48:54;;;;;;;6.25;5.13;;;19.10;86.70;;;;;;5052490;28;20099;-65
2022/04/29 09:51:47;;;;;;;7.25;5.00;;;19.40;83.40;;;;;;5052398;28;20025;-64
2022/04/29 09:54:17;;;;;;;8.55;4.70;;;19.80;82.90;;;;;;5052550;28;20021;-66
2022/04/29 09:57:02;;;;;;;6.68;5.40;;;20.30;81.10;;;;;;5054580;28;20403;-64
2022/04/29 09:59:38;;;;;;;5.78;5.07;;;21.00;79.60;;;;;;5056448;28;20025;-61
2022/04/29 10:02:06;;;;;;;;;;;21.10;78.10;;;;;;5056395;28;20096;-62
2022/04/29 10:04:34;;;;;;;7.38;5.00;;;21.60;77.40;;;;;;5056132;28;20003;-62
2022/04/29 10:07:03;;;;;;;10.90;5.07;;;22.00;75.40;;;;;;5055723;28;20045;-62
2022/04/29 10:09:31;;;;;;;8.93;4.82;;;21.00;74.00;;;;;;5056000;28;20104;-63
2022/04/29 10:11:59;;;;;;;7.00;4.80;;;21.10;76.60;;;;;;5055897;28;20096;-64
2022/04/29 10:14:28;;;;;;;6.45;4.50;;;21.30;75.80;;;;;;5055620;28;20082;-63
2022/04/29 10:22:40;;;;;;;7.45;3.90;;;22.00;73.40;;;;;;5055597;28;20079;-68
2022/04/29 10:25:08;;;;;;;6.35;4.10;;;21.90;72.70;;;;;;5055658;28;20020;-64
2022/04/29 10:27:38;;;;;;;6.18;4.78;;;21.90;72.30;;;;;;5055579;28;20079;-65
2022/04/29 10:30:04;;;;;;;6.18;4.63;;;21.90;70.80;;;;;;5055316;28;20398;-65
2022/04/29 10:32:30;;;;;;;6.00;4.55;;;21.70;71.40;;;;;;5055668;28;20335;-65
2022/04/29 10:34:55;;;;;;;5.70;4.88;;;21.80;72.30;;;;;;5056024;28;20025;-65
2022/04/29 10:37:32;;;;;;;5.10;4.25;;;21.30;70.50;;;;;;5055914;28;20040;-65
2022/04/29 10:40:11;;;;;;;6.13;4.43;;;21.40;71.80;;;;;;5055687;28;20024;-65
2022/04/29 10:43:09;;;;;;;5.78;4.22;;;21.70;71.40;;;;;;5055101;28;20029;-66
2022/04/29 10:45:36;;;;;;;6.25;4.50;;;21.70;72.00;;;;;;5055638;28;20023;-66
2022/04/29 10:48:31;;;;;;;7.32;4.45;;;22.30;67.80;;;;;;5055479;28;20535;-67
2022/04/29 10:50:57;;;;;;;6.22;4.30;;;23.00;65.80;;;;;;5055742;28;20036;-67
2022/04/29 10:53:24;;;;;;;6.03;4.28;;;23.50;63.70;;;;;;5053748;28;20025;-66
2022/04/29 10:55:50;;;;;;;9.23;5.00;;;23.30;63.20;;;;;;5055076;28;20083;-67
2022/04/29 10:58:20;;;;;;;;;;;23.50;63.40;;;;;;5055668;28;20025;-67
2022/04/29 11:01:23;;;;;;;10.80;5.47;;;23.40;61.90;;;;;;5054872;28;19925;-67
2022/04/29 11:03:49;;;;;;;8.07;4.78;;;24.00;61.10;;;;;;5048049;28;20040;-67
2022/04/29 11:06:15;;;;;;;;;;;23.40;59.80;;;;;;5055353;28;20025;-67
2022/04/29 11:08:42;;;;;;;8.40;4.03;;;22.60;60.70;;;;;;5053121;28;19909;-67
2022/04/29 11:11:09;;;;;;;4.95;4.10;;;21.80;62.30;;;;;;5055115;28;20024;-67
2022/04/29 11:13:39;;;;;;;4.65;3.78;;;21.30;61.50;;;;;;5055477;28;20052;-67
2022/04/29 11:16:16;;;;;;;5.28;3.45;;;21.00;60.10;;;;;;5056503;28;20226;-67
2022/04/29 11:18:44;;;;;;;5.93;4.32;;;20.60;60.80;;;;;;5057294;28;20021;-67
2022/04/29 11:26:49;;;;;;;5.40;3.38;;;20.50;61.70;;;;;;5055372;28;20394;-67
2022/04/29 11:29:17;;;;;;;5.47;3.65;;;20.20;62.60;;;;;;5055183;28;20021;-66
2022/04/29 11:31:42;;;;;;;7.80;3.78;;;20.10;63.20;;;;;;5054540;28;20385;-66
2022/04/29 11:34:13;;;;;;;10.48;4.63;;;20.20;61.40;;;;;;5054563;28;20043;-66
2022/04/29 11:36:39;;;;;;;8.32;4.70;;;20.20;65.20;;;;;;5054444;28;20025;-66
2022/04/29 11:39:14;;;;;;;;;;;20.10;64.30;;;;;;5055447;28;20371;-68
2022/04/29 11:41:54;;;;;;;8.65;4.53;;;20.10;64.60;;;;;;5055231;28;20019;-66
2022/04/29 11:44:53;;;;;;;8.00;3.90;;;20.00;61.60;;;;;;5053339;28;20025;-67
2022/04/29 11:47:25;;;;;;;7.45;3.95;;;20.00;59.70;;;;;;5013149;28;20034;-68
2022/04/29 11:49:52;;;;;;;7.18;3.63;;;20.00;60.20;;;;;;5012529;28;20061;-67
2022/04/29 11:52:23;;;;;;;14.48;4.22;;;20.10;60.80;;;;;;5012848;28;20518;-67
2022/04/29 11:55:01;;;;;;;5.85;3.97;;;20.10;60.10;;;;;;5012648;28;20030;-68
2022/04/29 11:57:30;;;;;;;11.43;8.07;;;19.90;60.50;;;;;;5012735;28;20399;-67
2022/04/29 11:59:56;;;;;;;5.50;3.53;;;19.80;61.30;;;;;;5012622;28;20026;-68
2022/04/29 12:02:23;;;;;;;;;;;19.70;61.50;;;;;;5012544;28;20117;-68
2022/04/29 12:04:54;;;;;;;130.20;84.00;;;19.80;61.90;;;;;;5012468;28;20529;-68
2022/04/29 12:07:21;;;;;;;49.13;32.13;;;19.80;61.70;;;;;;5013270;28;20169;-66
2022/04/29 12:09:47;;;;;;;14.13;9.63;;;19.90;60.00;;;;;;5012490;28;20048;-66
2022/04/29 12:12:30;;;;;;;7.60;5.65;;;20.20;59.60;;;;;;5012062;28;20030;-67
2022/04/29 12:14:58;;;;;;;4.30;3.08;;;20.30;60.60;;;;;;5012556;28;20061;-66
2022/04/29 12:17:36;;;;;;;4.78;3.40;;;20.40;59.70;;;;;;5012344;28;20065;-68
2022/04/29 12:20:03;;;;;;;4.90;3.03;;;20.50;59.60;;;;;;4994820;28;20485;-66
2022/04/29 12:22:31;;;;;;;5.18;2.80;;;20.60;59.00;;;;;;5025999;28;20116;-65
2022/04/29 12:24:57;;;;;;;5.47;3.50;;;20.40;59.20;;;;;;5052583;28;20111;-65
2022/04/29 12:27:31;;;;;;;5.65;3.17;;;20.30;59.70;;;;;;5054765;28;20024;-65
2022/04/29 12:35:29;;;;;;;4.85;3.20;;;20.00;60.10;;;;;;5053998;28;20481;-64
2022/04/29 12:37:55;;;;;;;4.75;2.92;;;19.80;60.80;;;;;;5053765;28;20021;-65
2022/04/29 12:40:30;;;;;;;3.67;3.17;;;20.00;61.10;;;;;;5053479;28;20145;-64
2022/04/29 12:43:12;;;;;;;5.10;3.38;;;20.00;60.90;;;;;;5053264;28;20432;-64
2022/04/29 12:45:38;;;;;;;6.30;4.18;;;20.20;60.10;;;;;;5052081;28;20223;-62
2022/04/29 12:48:07;;;;;;;4.55;3.28;;;20.20;59.50;;;;;;5053178;28;20055;-67
2022/04/29 12:50:43;;;;;;;11.02;3.47;;;20.00;60.00;;;;;;5051764;28;20025;-67
2022/04/29 12:53:17;;;;;;;4.20;2.72;;;19.90;61.30;;;;;;5053075;28;20025;-67
2022/04/29 12:55:42;;;;;;;6.57;3.58;;;19.90;61.50;;;;;;5051694;28;20040;-67
2022/04/29 12:58:12;;;;;;;5.47;3.40;;;20.00;61.30;;;;;;5051763;28;20020;-65
2022/04/29 13:00:44;;;;;;;5.32;3.30;;;20.10;60.90;;;;;;5052763;28;20029;-65
2022/04/29 13:03:21;;;;;;;5.78;3.13;;;20.20;61.40;;;;;;5052901;28;20070;-65
2022/04/29 13:05:47;;;;;;;9.55;4.40;;;20.40;61.50;;;;;;5053516;28;20029;-65
2022/04/29 13:08:13;;;;;;;7.68;4.03;;;20.60;61.60;;;;;;5053039;28;20100;-64
2022/04/29 13:10:43;;;;;;;7.38;3.28;;;20.70;60.20;;;;;;5052934;28;20112;-65
2022/04/29 13:13:08;;;;;;;9.60;3.80;;;20.90;60.10;;;;;;5052779;28;20025;-65
2022/04/29 13:15:34;;;;;;;8.07;4.68;;;21.00;60.20;;;;;;5053100;28;20094;-65
2022/04/29 13:18:00;;;;;;;5.13;2.95;;;21.00;60.80;;;;;;5052727;28;20434;-64
2022/04/29 13:20:26;;;;;;;7.57;3.78;;;20.90;60.70;;;;;;5053380;28;20091;-65
2022/04/29 13:22:53;;;;;;;4.55;3.30;;;21.10;59.60;;;;;;5052705;28;20431;-65
2022/04/29 13:25:19;;;;;;;5.03;3.53;;;20.90;59.20;;;;;;5053010;28;20032;-64
2022/04/29 13:27:44;;;;;;;4.90;3.55;;;20.80;59.30;;;;;;5053054;28;20378;-64